sensor_id;sensor_type;location;lat;lon;timestamp;temperature;humidity
37052;DHT22;22964;52.272;13.356;2022-08-21T00:02:17;23.90;76.20
37052;DHT22;22964;52.272;13.356;2022-08-21T00:04:43;23.90;76.50
37052;DHT22;22964;52.272;13.356;2022-08-21T00:07:09;23.90;76.20
37052;DHT22;22964;52.272;13.356;2022-08-21T00:09:35;23.90;76.20
37052;DHT22;22964;52.272;13.356;2022-08-21T00:12:02;23.90;76.30
37052;DHT22;22964;52.272;13.356;2022-08-21T00:14:27;23.90;76.30
37052;DHT22;22964;52.272;13.356;2022-08-21T00:16:53;23.90;76.30
37052;DHT22;22964;52.272;13.356;2022-08-21T00:19:19;23.90;77.10
37052;DHT22;22964;52.272;13.356;2022-08-21T00:21:44;23.90;76.40
37052;DHT22;22964;52.272;13.356;2022-08-21T00:24:11;23.90;76.30
37052;DHT22;22964;52.272;13.356;2022-08-21T00:26:37;23.90;76.40
37052;DHT22;22964;52.272;13.356;2022-08-21T00:29:03;23.90;76.40
37052;DHT22;22964;52.272;13.356;2022-08-21T00:31:29;23.90;76.40
37052;DHT22;22964;52.272;13.356;2022-08-21T00:33:54;23.90;76.40
37052;DHT22;22964;52.272;13.356;2022-08-21T00:36:20;23.90;76.40
37052;DHT22;22964;52.272;13.356;2022-08-21T00:38:46;23.90;76.50
37052;DHT22;22964;52.272;13.356;2022-08-21T00:41:11;23.90;76.50
37052;DHT22;22964;52.272;13.356;2022-08-21T00:43:39;23.90;76.60
37052;DHT22;22964;52.272;13.356;2022-08-21T00:46:06;23.90;76.50
37052;DHT22;22964;52.272;13.356;2022-08-21T00:48:32;23.90;76.50
37052;DHT22;22964;52.272;13.356;2022-08-21T00:51:04;23.90;76.50
37052;DHT22;22964;52.272;13.356;2022-08-21T00:53:31;23.90;76.50
37052;DHT22;22964;52.272;13.356;2022-08-21T00:55:58;23.90;76.40
37052;DHT22;22964;52.272;13.356;2022-08-21T00:58:26;23.90;76.30
37052;DHT22;22964;52.272;13.356;2022-08-21T01:00:53;23.90;76.30
37052;DHT22;22964;52.272;13.356;2022-08-21T01:03:21;23.90;76.20
37052;DHT22;22964;52.272;13.356;2022-08-21T01:05:48;23.90;76.10
37052;DHT22;22964;52.272;13.356;2022-08-21T01:08:15;23.80;76.00
37052;DHT22;22964;52.272;13.356;2022-08-21T01:10:43;23.80;75.90
37052;DHT22;22964;52.272;13.356;2022-08-21T01:13:10;23.80;76.00
37052;DHT22;22964;52.272;13.356;2022-08-21T01:15:40;23.90;76.00
37052;DHT22;22964;52.272;13.356;2022-08-21T01:18:09;23.90;76.00
37052;DHT22;22964;52.272;13.356;2022-08-21T01:20:38;23.80;75.90
37052;DHT22;22964;52.272;13.356;2022-08-21T01:23:05;23.80;75.80
37052;DHT22;22964;52.272;13.356;2022-08-21T01:25:32;23.80;75.70
37052;DHT22;22964;52.272;13.356;2022-08-21T01:28:04;23.80;75.80
37052;DHT22;22964;52.272;13.356;2022-08-21T01:30:30;23.80;75.70
37052;DHT22;22964;52.272;13.356;2022-08-21T01:32:59;23.80;75.80
37052;DHT22;22964;52.272;13.356;2022-08-21T01:35:25;23.80;75.30
37052;DHT22;22964;52.272;13.356;2022-08-21T01:37:51;23.80;75.30
37052;DHT22;22964;52.272;13.356;2022-08-21T01:40:17;23.70;75.10
37052;DHT22;22964;52.272;13.356;2022-08-21T01:42:45;23.80;75.20
37052;DHT22;22964;52.272;13.356;2022-08-21T01:45:12;23.70;75.20
37052;DHT22;22964;52.272;13.356;2022-08-21T01:47:38;23.70;76.00
37052;DHT22;22964;52.272;13.356;2022-08-21T01:50:07;23.70;75.20
37052;DHT22;22964;52.272;13.356;2022-08-21T01:52:33;23.70;75.20
37052;DHT22;22964;52.272;13.356;2022-08-21T01:54:59;23.60;75.10
37052;DHT22;22964;52.272;13.356;2022-08-21T01:57:24;23.60;75.10
37052;DHT22;22964;52.272;13.356;2022-08-21T01:59:50;23.60;75.10
37052;DHT22;22964;52.272;13.356;2022-08-21T02:02:16;23.60;75.00
37052;DHT22;22964;52.272;13.356;2022-08-21T02:04:42;23.60;74.90
37052;DHT22;22964;52.272;13.356;2022-08-21T02:07:07;23.50;74.90
37052;DHT22;22964;52.272;13.356;2022-08-21T02:09:33;23.50;74.80
37052;DHT22;22964;52.272;13.356;2022-08-21T02:11:59;23.40;74.70
37052;DHT22;22964;52.272;13.356;2022-08-21T02:14:25;23.40;74.70
37052;DHT22;22964;52.272;13.356;2022-08-21T02:16:51;23.40;74.70
37052;DHT22;22964;52.272;13.356;2022-08-21T02:19:17;23.40;74.70
37052;DHT22;22964;52.272;13.356;2022-08-21T02:21:43;23.40;74.70
37052;DHT22;22964;52.272;13.356;2022-08-21T02:24:09;23.30;74.70
37052;DHT22;22964;52.272;13.356;2022-08-21T02:26:35;23.30;74.80
37052;DHT22;22964;52.272;13.356;2022-08-21T02:29:03;23.30;74.80
37052;DHT22;22964;52.272;13.356;2022-08-21T02:31:29;23.30;75.70
37052;DHT22;22964;52.272;13.356;2022-08-21T02:33:54;23.20;74.70
37052;DHT22;22964;52.272;13.356;2022-08-21T02:36:20;23.20;74.70
37052;DHT22;22964;52.272;13.356;2022-08-21T02:38:46;23.20;74.70
37052;DHT22;22964;52.272;13.356;2022-08-21T02:41:15;23.20;74.80
37052;DHT22;22964;52.272;13.356;2022-08-21T02:43:41;23.10;74.80
37052;DHT22;22964;52.272;13.356;2022-08-21T02:46:08;23.10;74.80
37052;DHT22;22964;52.272;13.356;2022-08-21T02:48:35;23.10;74.80
37052;DHT22;22964;52.272;13.356;2022-08-21T02:51:08;23.00;74.80
37052;DHT22;22964;52.272;13.356;2022-08-21T02:53:34;23.10;74.80
37052;DHT22;22964;52.272;13.356;2022-08-21T02:56:03;23.00;74.70
37052;DHT22;22964;52.272;13.356;2022-08-21T02:58:36;23.00;74.60
37052;DHT22;22964;52.272;13.356;2022-08-21T03:01:04;22.90;74.50
37052;DHT22;22964;52.272;13.356;2022-08-21T03:03:31;22.90;74.50
37052;DHT22;22964;52.272;13.356;2022-08-21T03:05:56;22.90;74.50
37052;DHT22;22964;52.272;13.356;2022-08-21T03:08:22;22.90;74.40
37052;DHT22;22964;52.272;13.356;2022-08-21T03:10:50;22.90;74.40
37052;DHT22;22964;52.272;13.356;2022-08-21T03:13:17;22.90;74.30
37052;DHT22;22964;52.272;13.356;2022-08-21T03:15:43;22.80;74.20
37052;DHT22;22964;52.272;13.356;2022-08-21T03:18:10;22.80;74.10
37052;DHT22;22964;52.272;13.356;2022-08-21T03:20:38;22.70;74.10
37052;DHT22;22964;52.272;13.356;2022-08-21T03:23:04;22.70;74.00
37052;DHT22;22964;52.272;13.356;2022-08-21T03:25:30;22.70;74.10
37052;DHT22;22964;52.272;13.356;2022-08-21T03:28:02;22.70;74.00
37052;DHT22;22964;52.272;13.356;2022-08-21T03:30:29;22.60;74.00
37052;DHT22;22964;52.272;13.356;2022-08-21T03:32:57;22.60;74.10
37052;DHT22;22964;52.272;13.356;2022-08-21T03:35:23;22.50;73.90
37052;DHT22;22964;52.272;13.356;2022-08-21T03:37:49;22.50;74.00
37052;DHT22;22964;52.272;13.356;2022-08-21T03:40:17;22.50;74.10
37052;DHT22;22964;52.272;13.356;2022-08-21T03:42:43;22.50;74.10
37052;DHT22;22964;52.272;13.356;2022-08-21T03:45:10;22.50;74.20
37052;DHT22;22964;52.272;13.356;2022-08-21T03:47:36;22.40;74.00
37052;DHT22;22964;52.272;13.356;2022-08-21T03:50:05;22.40;74.20
37052;DHT22;22964;52.272;13.356;2022-08-21T03:52:31;22.40;74.20
37052;DHT22;22964;52.272;13.356;2022-08-21T03:54:57;22.40;74.30
37052;DHT22;22964;52.272;13.356;2022-08-21T03:57:22;22.30;74.00
37052;DHT22;22964;52.272;13.356;2022-08-21T03:59:48;22.30;73.90
37052;DHT22;22964;52.272;13.356;2022-08-21T04:02:16;22.30;73.80
37052;DHT22;22964;52.272;13.356;2022-08-21T04:04:44;22.30;73.70
37052;DHT22;22964;52.272;13.356;2022-08-21T04:07:09;22.30;73.80
37052;DHT22;22964;52.272;13.356;2022-08-21T04:09:35;22.20;73.80
37052;DHT22;22964;52.272;13.356;2022-08-21T04:12:01;22.20;73.80
37052;DHT22;22964;52.272;13.356;2022-08-21T04:14:28;22.20;74.10
37052;DHT22;22964;52.272;13.356;2022-08-21T04:16:54;22.20;74.10
37052;DHT22;22964;52.272;13.356;2022-08-21T04:19:19;22.20;74.20
37052;DHT22;22964;52.272;13.356;2022-08-21T04:21:45;22.20;74.20
37052;DHT22;22964;52.272;13.356;2022-08-21T04:24:11;22.10;74.00
37052;DHT22;22964;52.272;13.356;2022-08-21T04:26:37;22.10;74.00
37052;DHT22;22964;52.272;13.356;2022-08-21T04:29:04;22.10;74.00
37052;DHT22;22964;52.272;13.356;2022-08-21T04:31:32;22.10;74.00
37052;DHT22;22964;52.272;13.356;2022-08-21T04:33:58;22.00;74.00
37052;DHT22;22964;52.272;13.356;2022-08-21T04:36:24;22.10;74.00
37052;DHT22;22964;52.272;13.356;2022-08-21T04:38:50;22.00;73.90
37052;DHT22;22964;52.272;13.356;2022-08-21T04:41:16;22.00;74.10
37052;DHT22;22964;52.272;13.356;2022-08-21T04:43:42;22.00;74.20
37052;DHT22;22964;52.272;13.356;2022-08-21T04:46:08;22.00;74.20
37052;DHT22;22964;52.272;13.356;2022-08-21T04:48:34;22.00;74.30
37052;DHT22;22964;52.272;13.356;2022-08-21T04:51:09;22.00;74.20
37052;DHT22;22964;52.272;13.356;2022-08-21T04:58:47;21.90;74.30
37052;DHT22;22964;52.272;13.356;2022-08-21T05:01:19;21.90;74.40
37052;DHT22;22964;52.272;13.356;2022-08-21T05:03:47;21.90;74.40
37052;DHT22;22964;52.272;13.356;2022-08-21T05:06:15;21.90;74.60
37052;DHT22;22964;52.272;13.356;2022-08-21T05:08:43;21.90;74.80
37052;DHT22;22964;52.272;13.356;2022-08-21T05:11:10;21.90;74.80
37052;DHT22;22964;52.272;13.356;2022-08-21T05:13:36;21.90;75.80
37052;DHT22;22964;52.272;13.356;2022-08-21T05:16:02;21.80;74.80
37052;DHT22;22964;52.272;13.356;2022-08-21T05:18:28;21.80;74.80
37052;DHT22;22964;52.272;13.356;2022-08-21T05:20:54;21.90;74.80
37052;DHT22;22964;52.272;13.356;2022-08-21T05:23:20;21.90;74.80
37052;DHT22;22964;52.272;13.356;2022-08-21T05:25:45;21.90;74.80
37052;DHT22;22964;52.272;13.356;2022-08-21T05:28:11;21.90;74.80
37052;DHT22;22964;52.272;13.356;2022-08-21T05:30:38;21.90;74.80
37052;DHT22;22964;52.272;13.356;2022-08-21T05:33:05;21.80;74.70
37052;DHT22;22964;52.272;13.356;2022-08-21T05:35:32;21.90;74.80
37052;DHT22;22964;52.272;13.356;2022-08-21T05:37:58;21.90;74.80
37052;DHT22;22964;52.272;13.356;2022-08-21T05:40:25;21.80;74.60
37052;DHT22;22964;52.272;13.356;2022-08-21T05:42:52;21.90;74.40
37052;DHT22;22964;52.272;13.356;2022-08-21T05:45:18;21.90;74.30
37052;DHT22;22964;52.272;13.356;2022-08-21T05:47:44;21.90;74.10
37052;DHT22;22964;52.272;13.356;2022-08-21T05:50:10;21.90;74.00
37052;DHT22;22964;52.272;13.356;2022-08-21T05:52:36;21.80;73.80
37052;DHT22;22964;52.272;13.356;2022-08-21T05:55:02;21.90;73.80
37052;DHT22;22964;52.272;13.356;2022-08-21T05:57:28;21.90;73.60
37052;DHT22;22964;52.272;13.356;2022-08-21T05:59:53;21.80;73.50
37052;DHT22;22964;52.272;13.356;2022-08-21T06:02:20;21.90;73.60
37052;DHT22;22964;52.272;13.356;2022-08-21T06:04:47;21.90;73.40
37052;DHT22;22964;52.272;13.356;2022-08-21T06:07:13;21.90;73.30
37052;DHT22;22964;52.272;13.356;2022-08-21T06:09:38;21.90;73.10
37052;DHT22;22964;52.272;13.356;2022-08-21T06:12:06;21.90;73.10
37052;DHT22;22964;52.272;13.356;2022-08-21T06:14:32;21.90;73.90
37052;DHT22;22964;52.272;13.356;2022-08-21T06:17:05;22.00;73.00
37052;DHT22;22964;52.272;13.356;2022-08-21T06:19:31;22.00;72.50
37052;DHT22;22964;52.272;13.356;2022-08-21T06:21:58;22.00;72.80
37052;DHT22;22964;52.272;13.356;2022-08-21T06:24:24;22.00;72.70
37052;DHT22;22964;52.272;13.356;2022-08-21T06:26:50;22.10;72.60
37052;DHT22;22964;52.272;13.356;2022-08-21T06:29:15;22.10;73.30
37052;DHT22;22964;52.272;13.356;2022-08-21T06:31:43;22.10;72.40
37052;DHT22;22964;52.272;13.356;2022-08-21T06:34:10;22.10;72.40
37052;DHT22;22964;52.272;13.356;2022-08-21T06:36:36;22.20;72.70
37052;DHT22;22964;52.272;13.356;2022-08-21T06:39:02;22.20;72.70
37052;DHT22;22964;52.272;13.356;2022-08-21T06:41:28;22.30;72.90
37052;DHT22;22964;52.272;13.356;2022-08-21T06:43:55;22.30;72.70
37052;DHT22;22964;52.272;13.356;2022-08-21T06:46:26;22.40;72.40
37052;DHT22;22964;52.272;13.356;2022-08-21T06:48:52;22.40;72.30
37052;DHT22;22964;52.272;13.356;2022-08-21T06:51:18;22.50;72.50
37052;DHT22;22964;52.272;13.356;2022-08-21T06:53:44;22.50;72.20
37052;DHT22;22964;52.272;13.356;2022-08-21T06:56:10;22.60;71.80
37052;DHT22;22964;52.272;13.356;2022-08-21T06:58:36;22.70;71.60
37052;DHT22;22964;52.272;13.356;2022-08-21T07:01:02;22.70;71.50
37052;DHT22;22964;52.272;13.356;2022-08-21T07:03:38;22.80;71.10
37052;DHT22;22964;52.272;13.356;2022-08-21T07:06:08;22.90;70.70
37052;DHT22;22964;52.272;13.356;2022-08-21T07:08:34;22.90;70.60
37052;DHT22;22964;52.272;13.356;2022-08-21T07:11:03;23.00;70.80
37052;DHT22;22964;52.272;13.356;2022-08-21T07:13:29;23.00;70.30
37052;DHT22;22964;52.272;13.356;2022-08-21T07:15:55;23.10;70.50
37052;DHT22;22964;52.272;13.356;2022-08-21T07:18:21;23.10;70.30
37052;DHT22;22964;52.272;13.356;2022-08-21T07:20:47;23.20;70.50
37052;DHT22;22964;52.272;13.356;2022-08-21T07:23:23;23.30;70.30
37052;DHT22;22964;52.272;13.356;2022-08-21T07:25:50;23.30;69.50
37052;DHT22;22964;52.272;13.356;2022-08-21T07:28:15;23.40;69.90
37052;DHT22;22964;52.272;13.356;2022-08-21T07:30:41;23.50;69.80
37052;DHT22;22964;52.272;13.356;2022-08-21T07:33:07;23.60;69.70
37052;DHT22;22964;52.272;13.356;2022-08-21T07:35:33;23.60;69.40
37052;DHT22;22964;52.272;13.356;2022-08-21T07:37:59;23.70;69.20
37052;DHT22;22964;52.272;13.356;2022-08-21T07:40:25;23.80;69.30
37052;DHT22;22964;52.272;13.356;2022-08-21T07:42:50;23.90;68.90
37052;DHT22;22964;52.272;13.356;2022-08-21T07:45:19;24.00;68.70
37052;DHT22;22964;52.272;13.356;2022-08-21T07:47:45;24.00;68.30
37052;DHT22;22964;52.272;13.356;2022-08-21T07:50:12;24.10;68.70
37052;DHT22;22964;52.272;13.356;2022-08-21T07:52:39;24.20;68.40
37052;DHT22;22964;52.272;13.356;2022-08-21T07:55:05;24.40;68.10
37052;DHT22;22964;52.272;13.356;2022-08-21T07:57:31;24.50;67.70
37052;DHT22;22964;52.272;13.356;2022-08-21T07:59:57;24.60;67.20
37052;DHT22;22964;52.272;13.356;2022-08-21T08:02:28;24.70;66.80
37052;DHT22;22964;52.272;13.356;2022-08-21T08:04:54;24.80;65.90
37052;DHT22;22964;52.272;13.356;2022-08-21T08:07:20;25.00;67.20
37052;DHT22;22964;52.272;13.356;2022-08-21T08:09:45;25.10;66.70
37052;DHT22;22964;52.272;13.356;2022-08-21T08:12:11;25.20;66.30
37052;DHT22;22964;52.272;13.356;2022-08-21T08:14:37;25.30;64.80
37052;DHT22;22964;52.272;13.356;2022-08-21T08:17:03;25.50;64.90
37052;DHT22;22964;52.272;13.356;2022-08-21T08:19:29;25.60;63.90
37052;DHT22;22964;52.272;13.356;2022-08-21T08:21:55;25.70;62.70
37052;DHT22;22964;52.272;13.356;2022-08-21T08:24:21;25.80;62.60
37052;DHT22;22964;52.272;13.356;2022-08-21T08:26:47;25.80;62.10
37052;DHT22;22964;52.272;13.356;2022-08-21T08:29:13;26.00;62.60
37052;DHT22;22964;52.272;13.356;2022-08-21T08:31:38;26.00;62.20
37052;DHT22;22964;52.272;13.356;2022-08-21T08:34:04;26.10;61.90
37052;DHT22;22964;52.272;13.356;2022-08-21T08:36:35;26.20;61.70
37052;DHT22;22964;52.272;13.356;2022-08-21T08:39:02;26.30;60.80
37052;DHT22;22964;52.272;13.356;2022-08-21T08:41:28;26.40;62.50
37052;DHT22;22964;52.272;13.356;2022-08-21T08:43:59;26.40;61.40
37052;DHT22;22964;52.272;13.356;2022-08-21T08:46:33;26.50;60.50
37052;DHT22;22964;52.272;13.356;2022-08-21T08:49:29;26.60;59.10
37052;DHT22;22964;52.272;13.356;2022-08-21T08:54:49;26.80;57.00
37052;DHT22;22964;52.272;13.356;2022-08-21T08:57:19;26.90;57.10
37052;DHT22;22964;52.272;13.356;2022-08-21T08:59:50;26.90;57.20
37052;DHT22;22964;52.272;13.356;2022-08-21T09:02:18;26.90;56.30
37052;DHT22;22964;52.272;13.356;2022-08-21T09:04:46;26.90;57.30
37052;DHT22;22964;52.272;13.356;2022-08-21T09:15:50;26.90;56.10
37052;DHT22;22964;52.272;13.356;2022-08-21T09:27:12;27.00;54.40
37052;DHT22;22964;52.272;13.356;2022-08-21T09:29:45;27.00;54.70
37052;DHT22;22964;52.272;13.356;2022-08-21T09:32:25;27.00;55.20
37052;DHT22;22964;52.272;13.356;2022-08-21T09:35:00;27.10;54.40
37052;DHT22;22964;52.272;13.356;2022-08-21T09:37:31;27.10;53.80
37052;DHT22;22964;52.272;13.356;2022-08-21T09:39:58;27.10;53.90
37052;DHT22;22964;52.272;13.356;2022-08-21T09:42:30;27.10;54.70
37052;DHT22;22964;52.272;13.356;2022-08-21T09:45:12;27.20;54.60
37052;DHT22;22964;52.272;13.356;2022-08-21T09:47:40;27.20;54.00
37052;DHT22;22964;52.272;13.356;2022-08-21T09:50:26;27.30;54.90
37052;DHT22;22964;52.272;13.356;2022-08-21T09:52:57;27.40;53.00
37052;DHT22;22964;52.272;13.356;2022-08-21T09:55:39;27.50;53.50
37052;DHT22;22964;52.272;13.356;2022-08-21T09:58:32;27.50;52.70
37052;DHT22;22964;52.272;13.356;2022-08-21T10:01:00;27.70;53.70
37052;DHT22;22964;52.272;13.356;2022-08-21T10:03:27;27.70;53.20
37052;DHT22;22964;52.272;13.356;2022-08-21T10:06:03;27.80;53.10
37052;DHT22;22964;52.272;13.356;2022-08-21T10:08:33;27.90;52.00
37052;DHT22;22964;52.272;13.356;2022-08-21T10:11:13;27.90;53.10
37052;DHT22;22964;52.272;13.356;2022-08-21T10:16:59;28.10;51.80
37052;DHT22;22964;52.272;13.356;2022-08-21T10:19:44;28.30;51.00
37052;DHT22;22964;52.272;13.356;2022-08-21T10:22:32;28.50;52.10
37052;DHT22;22964;52.272;13.356;2022-08-21T10:25:05;28.60;51.40
37052;DHT22;22964;52.272;13.356;2022-08-21T10:28:01;28.70;52.10
37052;DHT22;22964;52.272;13.356;2022-08-21T10:36:18;29.10;52.00
37052;DHT22;22964;52.272;13.356;2022-08-21T10:44:57;29.40;48.10
37052;DHT22;22964;52.272;13.356;2022-08-21T10:47:42;29.50;46.30
37052;DHT22;22964;52.272;13.356;2022-08-21T10:55:44;29.80;47.30
37052;DHT22;22964;52.272;13.356;2022-08-21T10:58:26;29.90;46.20
37052;DHT22;22964;52.272;13.356;2022-08-21T11:01:24;30.10;46.70
37052;DHT22;22964;52.272;13.356;2022-08-21T11:04:12;30.30;45.90
37052;DHT22;22964;52.272;13.356;2022-08-21T11:06:47;30.40;44.60
37052;DHT22;22964;52.272;13.356;2022-08-21T11:09:18;30.60;46.20
37052;DHT22;22964;52.272;13.356;2022-08-21T11:15:02;30.80;44.30
37052;DHT22;22964;52.272;13.356;2022-08-21T11:17:35;31.00;46.10
37052;DHT22;22964;52.272;13.356;2022-08-21T11:20:16;31.10;44.80
37052;DHT22;22964;52.272;13.356;2022-08-21T11:23:14;31.20;43.80
37052;DHT22;22964;52.272;13.356;2022-08-21T11:25:47;31.30;42.40
37052;DHT22;22964;52.272;13.356;2022-08-21T11:28:27;31.40;42.40
37052;DHT22;22964;52.272;13.356;2022-08-21T11:31:12;31.40;41.30
37052;DHT22;22964;52.272;13.356;2022-08-21T11:41:54;31.20;43.70
37052;DHT22;22964;52.272;13.356;2022-08-21T11:44:43;31.20;41.40
37052;DHT22;22964;52.272;13.356;2022-08-21T11:50:20;31.20;42.10
37052;DHT22;22964;52.272;13.356;2022-08-21T11:52:52;31.20;42.30
37052;DHT22;22964;52.272;13.356;2022-08-21T11:55:36;31.20;42.30
37052;DHT22;22964;52.272;13.356;2022-08-21T11:58:11;31.30;40.90
37052;DHT22;22964;52.272;13.356;2022-08-21T12:03:38;31.40;41.70
37052;DHT22;22964;52.272;13.356;2022-08-21T12:06:08;31.50;40.30
37052;DHT22;22964;52.272;13.356;2022-08-21T12:08:37;31.70;41.40
37052;DHT22;22964;52.272;13.356;2022-08-21T12:11:23;31.70;41.40
37052;DHT22;22964;52.272;13.356;2022-08-21T12:14:16;31.90;40.30
37052;DHT22;22964;52.272;13.356;2022-08-21T12:16:45;32.10;40.00
37052;DHT22;22964;52.272;13.356;2022-08-21T12:19:29;32.30;40.90
37052;DHT22;22964;52.272;13.356;2022-08-21T12:26:53;32.80;39.70
37052;DHT22;22964;52.272;13.356;2022-08-21T12:29:31;32.90;39.20
37052;DHT22;22964;52.272;13.356;2022-08-21T12:32:04;33.00;38.00
37052;DHT22;22964;52.272;13.356;2022-08-21T12:40:55;33.40;37.50
37052;DHT22;22964;52.272;13.356;2022-08-21T12:43:42;33.40;36.80
37052;DHT22;22964;52.272;13.356;2022-08-21T12:46:18;33.50;37.50
37052;DHT22;22964;52.272;13.356;2022-08-21T12:48:56;33.50;36.80
37052;DHT22;22964;52.272;13.356;2022-08-21T12:51:26;33.60;36.40
37052;DHT22;22964;52.272;13.356;2022-08-21T12:53:55;33.70;37.60
37052;DHT22;22964;52.272;13.356;2022-08-21T12:56:25;33.70;37.50
37052;DHT22;22964;52.272;13.356;2022-08-21T12:58:57;33.80;37.10
37052;DHT22;22964;52.272;13.356;2022-08-21T13:04:16;33.90;36.80
37052;DHT22;22964;52.272;13.356;2022-08-21T13:06:45;34.00;35.20
37052;DHT22;22964;52.272;13.356;2022-08-21T13:09:15;34.10;36.10
37052;DHT22;22964;52.272;13.356;2022-08-21T13:11:44;34.10;35.80
37052;DHT22;22964;52.272;13.356;2022-08-21T13:16:58;34.10;34.70
37052;DHT22;22964;52.272;13.356;2022-08-21T13:19:25;34.20;35.40
37052;DHT22;22964;52.272;13.356;2022-08-21T13:21:51;34.20;35.50
37052;DHT22;22964;52.272;13.356;2022-08-21T13:24:24;34.20;35.50
37052;DHT22;22964;52.272;13.356;2022-08-21T13:26:51;34.20;34.70
37052;DHT22;22964;52.272;13.356;2022-08-21T13:29:20;34.20;35.70
37052;DHT22;22964;52.272;13.356;2022-08-21T13:31:57;34.30;35.00
37052;DHT22;22964;52.272;13.356;2022-08-21T13:34:25;34.30;34.90
37052;DHT22;22964;52.272;13.356;2022-08-21T13:36:58;34.30;34.90
37052;DHT22;22964;52.272;13.356;2022-08-21T13:39:25;34.40;34.20
37052;DHT22;22964;52.272;13.356;2022-08-21T13:41:55;34.30;34.60
37052;DHT22;22964;52.272;13.356;2022-08-21T13:44:31;34.30;33.70
37052;DHT22;22964;52.272;13.356;2022-08-21T13:46:59;34.20;33.90
37052;DHT22;22964;52.272;13.356;2022-08-21T13:49:30;34.00;34.00
37052;DHT22;22964;52.272;13.356;2022-08-21T13:51:56;33.90;33.40
37052;DHT22;22964;52.272;13.356;2022-08-21T13:54:40;33.70;33.90
37052;DHT22;22964;52.272;13.356;2022-08-21T13:57:17;33.60;33.40
37052;DHT22;22964;52.272;13.356;2022-08-21T13:59:43;33.40;33.20
37052;DHT22;22964;52.272;13.356;2022-08-21T14:02:23;33.40;34.00
37052;DHT22;22964;52.272;13.356;2022-08-21T14:05:00;33.30;33.30
37052;DHT22;22964;52.272;13.356;2022-08-21T14:07:36;33.10;33.00
37052;DHT22;22964;52.272;13.356;2022-08-21T14:10:12;33.00;33.30
37052;DHT22;22964;52.272;13.356;2022-08-21T14:12:43;32.70;33.50
37052;DHT22;22964;52.272;13.356;2022-08-21T14:15:15;32.60;33.80
37052;DHT22;22964;52.272;13.356;2022-08-21T14:17:44;32.40;34.10
37052;DHT22;22964;52.272;13.356;2022-08-21T14:20:12;32.30;34.50
37052;DHT22;22964;52.272;13.356;2022-08-21T14:22:50;32.10;34.40
37052;DHT22;22964;52.272;13.356;2022-08-21T14:30:36;31.70;34.50
37052;DHT22;22964;52.272;13.356;2022-08-21T14:33:04;31.60;35.00
37052;DHT22;22964;52.272;13.356;2022-08-21T14:35:34;31.50;35.30
37052;DHT22;22964;52.272;13.356;2022-08-21T14:38:00;31.40;35.40
37052;DHT22;22964;52.272;13.356;2022-08-21T14:40:26;31.30;35.30
37052;DHT22;22964;52.272;13.356;2022-08-21T14:42:52;31.30;35.30
37052;DHT22;22964;52.272;13.356;2022-08-21T14:45:29;31.20;35.40
37052;DHT22;22964;52.272;13.356;2022-08-21T14:47:57;31.10;35.00
37052;DHT22;22964;52.272;13.356;2022-08-21T14:50:23;31.10;35.50
37052;DHT22;22964;52.272;13.356;2022-08-21T14:52:49;31.00;35.50
37052;DHT22;22964;52.272;13.356;2022-08-21T14:55:16;31.00;35.40
37052;DHT22;22964;52.272;13.356;2022-08-21T14:57:45;31.00;35.30
37052;DHT22;22964;52.272;13.356;2022-08-21T15:00:13;30.90;35.30
37052;DHT22;22964;52.272;13.356;2022-08-21T15:02:39;30.90;35.40
37052;DHT22;22964;52.272;13.356;2022-08-21T15:05:05;30.80;35.70
37052;DHT22;22964;52.272;13.356;2022-08-21T15:07:31;30.80;35.80
37052;DHT22;22964;52.272;13.356;2022-08-21T15:09:57;30.60;35.60
37052;DHT22;22964;52.272;13.356;2022-08-21T15:12:24;30.60;35.70
37052;DHT22;22964;52.272;13.356;2022-08-21T15:14:50;30.60;35.90
37052;DHT22;22964;52.272;13.356;2022-08-21T15:17:16;30.50;36.00
37052;DHT22;22964;52.272;13.356;2022-08-21T15:19:42;30.50;36.20
37052;DHT22;22964;52.272;13.356;2022-08-21T15:22:07;30.40;36.50
37052;DHT22;22964;52.272;13.356;2022-08-21T15:24:33;30.40;36.50
37052;DHT22;22964;52.272;13.356;2022-08-21T15:27:00;30.40;36.60
37052;DHT22;22964;52.272;13.356;2022-08-21T15:29:28;30.30;36.80
37052;DHT22;22964;52.272;13.356;2022-08-21T15:32:00;30.30;36.90
37052;DHT22;22964;52.272;13.356;2022-08-21T15:34:28;30.30;36.90
37052;DHT22;22964;52.272;13.356;2022-08-21T15:36:56;30.20;36.60
37052;DHT22;22964;52.272;13.356;2022-08-21T15:39:22;30.20;36.80
37052;DHT22;22964;52.272;13.356;2022-08-21T15:41:48;30.20;37.60
37052;DHT22;22964;52.272;13.356;2022-08-21T15:44:15;30.20;37.10
37052;DHT22;22964;52.272;13.356;2022-08-21T15:46:42;30.20;37.10
37052;DHT22;22964;52.272;13.356;2022-08-21T15:49:10;30.20;37.00
37052;DHT22;22964;52.272;13.356;2022-08-21T15:51:35;30.10;37.00
37052;DHT22;22964;52.272;13.356;2022-08-21T15:54:01;30.10;36.90
37052;DHT22;22964;52.272;13.356;2022-08-21T15:56:34;30.10;37.00
37052;DHT22;22964;52.272;13.356;2022-08-21T15:59:05;30.00;36.80
37052;DHT22;22964;52.272;13.356;2022-08-21T16:01:33;30.00;36.80
37052;DHT22;22964;52.272;13.356;2022-08-21T16:03:59;29.90;37.20
37052;DHT22;22964;52.272;13.356;2022-08-21T16:06:26;29.90;37.10
37052;DHT22;22964;52.272;13.356;2022-08-21T16:08:51;29.80;37.10
37052;DHT22;22964;52.272;13.356;2022-08-21T16:11:17;29.70;36.80
37052;DHT22;22964;52.272;13.356;2022-08-21T16:13:44;29.80;37.20
37052;DHT22;22964;52.272;13.356;2022-08-21T16:16:15;29.60;37.40
37052;DHT22;22964;52.272;13.356;2022-08-21T16:18:41;29.60;37.10
37052;DHT22;22964;52.272;13.356;2022-08-21T16:21:07;29.50;37.20
37052;DHT22;22964;52.272;13.356;2022-08-21T16:23:34;29.50;37.30
37052;DHT22;22964;52.272;13.356;2022-08-21T16:26:02;29.40;37.50
37052;DHT22;22964;52.272;13.356;2022-08-21T16:28:29;29.30;37.30
37052;DHT22;22964;52.272;13.356;2022-08-21T16:30:55;29.40;37.70
37052;DHT22;22964;52.272;13.356;2022-08-21T16:35:52;29.30;37.90
37052;DHT22;22964;52.272;13.356;2022-08-21T16:38:18;29.30;38.10
37052;DHT22;22964;52.272;13.356;2022-08-21T16:40:44;29.20;38.00
37052;DHT22;22964;52.272;13.356;2022-08-21T16:43:10;29.20;38.00
37052;DHT22;22964;52.272;13.356;2022-08-21T16:45:36;29.20;38.30
37052;DHT22;22964;52.272;13.356;2022-08-21T16:48:02;29.30;38.40
37052;DHT22;22964;52.272;13.356;2022-08-21T16:50:31;29.20;38.30
37052;DHT22;22964;52.272;13.356;2022-08-21T16:52:56;29.20;38.40
37052;DHT22;22964;52.272;13.356;2022-08-21T16:55:22;29.20;38.60